createdAt,value
2019-01-31T00:00:00.702Z,190.20
2019-01-31T00:02:32.632Z,192.13
2019-01-31T00:05:13.932Z,181.33
2019-01-31T00:07:48.790Z,178.63
2019-01-31T00:10:34.283Z,173.67
2019-01-31T00:13:12.509Z,175.80
2019-01-31T00:15:56.645Z,165.07
2019-01-31T00:18:31.591Z,172.77
2019-01-31T00:21:00.573Z,155.27
2019-01-31T00:23:32.335Z,156.20
2019-01-31T00:26:18.154Z,161.83
2019-01-31T00:28:52.921Z,157.97
2019-01-31T00:31:38.472Z,164.50
2019-01-31T00:34:16.461Z,156.40
2019-01-31T00:36:45.595Z,157.50
2019-01-31T00:39:15.720Z,161.57
2019-01-31T00:41:53.755Z,165.83
2019-01-31T00:44:31.722Z,180.80
2019-01-31T00:47:17.387Z,174.63
2019-01-31T00:50:01.489Z,185.70
2019-01-31T00:52:33.571Z,174.17
2019-01-31T00:55:02.578Z,173.83
2019-01-31T00:57:31.538Z,175.40
2019-01-31T01:00:03.745Z,169.13
2019-01-31T01:02:32.890Z,172.13
2019-01-31T01:05:01.938Z,168.23
2019-01-31T01:07:50.812Z,167.80
2019-01-31T01:10:28.772Z,159.03
2019-01-31T01:13:07.023Z,161.13
2019-01-31T01:15:52.659Z,156.67
2019-01-31T01:18:40.560Z,158.67
2019-01-31T01:21:09.729Z,157.07
2019-01-31T01:24:04.799Z,168.93
2019-01-31T01:26:36.653Z,154.53
2019-01-31T01:29:11.637Z,163.27
2019-01-31T01:31:58.697Z,173.50
2019-01-31T01:34:33.829Z,168.93
2019-01-31T01:37:02.873Z,164.73
2019-01-31T01:39:34.717Z,160.43
2019-01-31T01:42:09.533Z,156.57
2019-01-31T01:44:55.082Z,168.47
2019-01-31T01:47:24.150Z,184.23
2019-01-31T01:49:53.159Z,160.00
2019-01-31T01:52:28.013Z,171.83
2019-01-31T01:54:57.109Z,160.77
2019-01-31T01:57:32.201Z,162.77
2019-01-31T02:00:23.431Z,169.03
2019-01-31T02:02:55.585Z,176.70
2019-01-31T02:05:42.752Z,184.93
2019-01-31T02:08:30.309Z,186.63
2019-01-31T02:11:06.676Z,187.97
2019-01-31T02:13:35.799Z,186.03
2019-01-31T02:16:13.566Z,202.80
2019-01-31T02:18:42.719Z,204.53
2019-01-31T02:21:17.704Z,202.33
2019-01-31T02:23:49.916Z,198.87
2019-01-31T02:26:18.973Z,202.00
2019-01-31T02:29:04.720Z,204.23
2019-01-31T02:31:33.711Z,203.87
2019-01-31T02:34:02.760Z,220.67
2019-01-31T02:36:31.872Z,218.60
2019-01-31T02:39:17.351Z,233.13
2019-01-31T02:41:48.124Z,235.83
2019-01-31T02:44:17.191Z,231.70
2019-01-31T02:47:08.352Z,222.23
2019-01-31T02:49:55.623Z,220.77
2019-01-31T02:52:27.391Z,211.57
2019-01-31T02:54:59.366Z,222.40
2019-01-31T02:57:31.211Z,220.50
2019-01-31T03:00:00.381Z,211.17
2019-01-31T03:02:33.535Z,216.73
2019-01-31T03:05:08.732Z,214.73
2019-01-31T03:07:40.770Z,221.47
2019-01-31T03:10:13.021Z,205.57
2019-01-31T03:12:48.012Z,204.00
2019-01-31T03:15:16.996Z,217.07
2019-01-31T03:17:52.391Z,210.80
2019-01-31T03:20:21.520Z,218.63
2019-01-31T03:22:50.630Z,204.13
2019-01-31T03:25:36.296Z,204.17
2019-01-31T03:28:23.722Z,199.87
2019-01-31T03:30:52.825Z,196.57
2019-01-31T03:33:21.916Z,211.87
2019-01-31T03:35:51.023Z,205.70
2019-01-31T03:38:20.049Z,215.83
2019-01-31T03:41:05.737Z,203.47
2019-01-31T03:43:35.212Z,200.33
2019-01-31T03:46:10.174Z,221.53
2019-01-31T03:48:45.117Z,224.87
2019-01-31T03:51:14.154Z,210.87
2019-01-31T03:53:46.201Z,221.07
2019-01-31T03:56:15.721Z,206.53
2019-01-31T03:58:45.108Z,215.70
2019-01-31T04:01:30.892Z,209.27
2019-01-31T04:03:59.987Z,220.03
2019-01-31T04:06:27.473Z,211.07
2019-01-31T04:08:55.031Z,213.27
2019-01-31T04:11:22.408Z,219.17
2019-01-31T04:13:49.810Z,234.07
2019-01-31T04:16:17.472Z,242.93
2019-01-31T04:18:47.924Z,261.50
2019-01-31T04:21:15.406Z,273.67
2019-01-31T04:23:42.954Z,262.77
2019-01-31T04:26:13.775Z,283.83
2019-01-31T04:28:41.208Z,273.37
2019-01-31T04:31:08.777Z,299.83
2019-01-31T04:33:36.291Z,281.20
2019-01-31T04:36:05.324Z,283.30
2019-01-31T04:38:32.804Z,286.27
2019-01-31T04:41:03.180Z,287.47
2019-01-31T04:43:30.684Z,278.33
2019-01-31T04:46:01.186Z,280.33
2019-01-31T04:48:28.657Z,283.23
2019-01-31T04:50:56.178Z,294.60
2019-01-31T04:53:23.528Z,276.27
2019-01-31T04:55:52.456Z,318.47
2019-01-31T04:58:20.009Z,310.63
2019-01-31T05:00:47.548Z,299.50
2019-01-31T05:03:15.026Z,304.73
2019-01-31T05:05:45.218Z,319.67
2019-01-31T05:08:12.700Z,319.97
2019-01-31T05:10:43.192Z,312.67
2019-01-31T05:13:10.110Z,327.43
2019-01-31T05:15:38.199Z,316.10
2019-01-31T05:18:05.607Z,270.63
2019-01-31T05:20:33.088Z,268.67
2019-01-31T05:23:02.222Z,289.97
2019-01-31T05:25:31.312Z,276.83
2019-01-31T05:27:58.788Z,281.43
2019-01-31T05:30:26.275Z,266.83
2019-01-31T05:32:54.046Z,277.87
2019-01-31T05:35:24.451Z,276.60
2019-01-31T05:37:51.989Z,286.47
2019-01-31T05:40:19.446Z,290.70
2019-01-31T05:42:48.524Z,265.47
2019-01-31T05:45:16.336Z,272.40
2019-01-31T05:47:43.796Z,259.80
2019-01-31T05:50:12.484Z,266.10
2019-01-31T05:52:43.122Z,263.37
2019-01-31T05:55:13.549Z,269.70
2019-01-31T05:57:42.422Z,261.63
2019-01-31T06:00:11.553Z,273.57
2019-01-31T06:02:39.725Z,265.47
2019-01-31T06:05:08.164Z,261.10
2019-01-31T06:07:35.953Z,275.87
2019-01-31T06:10:04.565Z,263.43
2019-01-31T06:12:32.071Z,271.03
2019-01-31T06:14:59.638Z,289.87
2019-01-31T06:17:27.540Z,283.03
2019-01-31T06:19:55.322Z,276.30
2019-01-31T06:22:24.972Z,287.87
2019-01-31T06:24:52.155Z,294.83
2019-01-31T06:27:22.213Z,308.17
2019-01-31T06:29:49.764Z,290.43
2019-01-31T06:32:17.377Z,287.37
2019-01-31T06:34:45.029Z,288.60
2019-01-31T06:37:15.002Z,304.73
2019-01-31T06:39:44.016Z,284.23
2019-01-31T06:42:11.573Z,302.23
2019-01-31T06:44:39.166Z,307.10
2019-01-31T06:47:06.604Z,318.43
2019-01-31T06:49:34.172Z,309.30
2019-01-31T06:52:01.841Z,311.80
2019-01-31T06:54:29.319Z,333.57
2019-01-31T06:56:58.495Z,334.43
2019-01-31T06:59:26.040Z,346.90
2019-01-31T07:01:53.477Z,368.60
2019-01-31T07:04:21.001Z,357.30
2019-01-31T07:06:48.651Z,353.70
2019-01-31T07:09:16.131Z,357.43
2019-01-31T07:11:43.665Z,376.80
2019-01-31T07:14:11.193Z,386.40
2019-01-31T07:16:40.455Z,395.20
2019-01-31T07:19:08.077Z,386.17
2019-01-31T07:21:37.204Z,402.37
2019-01-31T07:24:10.541Z,405.13
2019-01-31T07:26:41.626Z,382.27
2019-01-31T07:29:09.198Z,379.73
2019-01-31T07:31:37.991Z,396.93
2019-01-31T07:34:05.616Z,400.93
2019-01-31T07:36:33.041Z,404.33
2019-01-31T07:39:00.475Z,399.77
2019-01-31T07:41:40.625Z,390.97
2019-01-31T07:43:57.076Z,399.63
2019-01-31T07:46:24.593Z,381.60
2019-01-31T07:48:52.042Z,368.07
2019-01-31T07:51:19.533Z,375.10
2019-01-31T07:53:46.963Z,385.80
2019-01-31T07:56:14.621Z,370.33
2019-01-31T07:58:42.101Z,400.20
2019-01-31T08:01:12.195Z,374.30
2019-01-31T08:03:40.816Z,371.73
2019-01-31T08:06:08.455Z,378.20
2019-01-31T08:08:35.873Z,365.00
2019-01-31T08:11:03.425Z,345.33
2019-01-31T08:13:31.005Z,360.73
2019-01-31T08:15:58.428Z,344.93
2019-01-31T08:18:25.941Z,323.80
2019-01-31T08:20:53.350Z,329.13
2019-01-31T08:23:22.393Z,325.33
2019-01-31T08:25:49.957Z,331.33
2019-01-31T08:28:17.457Z,330.00
2019-01-31T08:30:44.890Z,332.37
2019-01-31T08:33:12.673Z,330.13
2019-01-31T08:35:40.096Z,325.77
2019-01-31T08:38:07.667Z,313.47
2019-01-31T08:40:35.983Z,317.87
2019-01-31T08:43:03.487Z,301.83
2019-01-31T08:45:30.880Z,320.83
2019-01-31T08:47:58.406Z,315.43
2019-01-31T08:50:27.685Z,316.00
2019-01-31T08:52:55.330Z,301.87
2019-01-31T08:55:23.507Z,323.63
2019-01-31T08:57:50.995Z,320.07
2019-01-31T09:00:19.456Z,314.27
2019-01-31T09:02:47.216Z,323.03
2019-01-31T09:05:14.670Z,328.03
2019-01-31T09:07:42.099Z,328.77
2019-01-31T09:10:11.263Z,323.33
2019-01-31T09:12:38.706Z,324.03
2019-01-31T09:15:07.824Z,320.60
2019-01-31T09:17:35.948Z,314.80
2019-01-31T09:20:08.764Z,321.47
2019-01-31T09:22:36.864Z,361.03
2019-01-31T09:25:12.284Z,388.13
2019-01-31T09:30:52.634Z,381.17
2019-01-31T09:33:39.164Z,382.77
2019-01-31T09:36:13.824Z,261.00
2019-01-31T09:38:48.926Z,249.37
2019-01-31T09:41:32.890Z,234.87
2019-01-31T09:44:04.619Z,222.10
2019-01-31T09:46:51.840Z,216.50
2019-01-31T09:49:23.884Z,208.87
2019-01-31T09:51:52.852Z,189.77
2019-01-31T09:54:21.924Z,192.60
2019-01-31T09:56:56.923Z,195.90
2019-01-31T09:59:43.375Z,194.87
2019-01-31T10:02:18.456Z,190.97
2019-01-31T10:05:04.119Z,197.03
2019-01-31T10:07:48.267Z,185.50
2019-01-31T10:10:19.001Z,185.53
2019-01-31T10:12:50.892Z,182.77
2019-01-31T10:15:20.172Z,179.87
2019-01-31T10:17:53.811Z,183.50
2019-01-31T10:20:31.953Z,170.30
2019-01-31T10:23:09.968Z,159.63
2019-01-31T10:25:39.279Z,154.57
2019-01-31T10:28:08.338Z,146.17
2019-01-31T10:30:54.297Z,142.40
2019-01-31T10:33:23.324Z,133.83
2019-01-31T10:35:55.259Z,138.10
2019-01-31T10:38:30.120Z,126.47
2019-01-31T10:41:01.925Z,115.47
2019-01-31T10:43:37.988Z,97.00
2019-01-31T10:46:10.766Z,89.43
2019-01-31T10:48:42.578Z,92.03
2019-01-31T10:51:11.584Z,92.57
2019-01-31T10:53:44.697Z,92.83
2019-01-31T10:56:21.366Z,89.70
2019-01-31T10:59:01.794Z,81.33
2019-01-31T11:01:30.837Z,84.33
2019-01-31T11:04:14.323Z,72.43
2019-01-31T11:06:52.788Z,58.17
2019-01-31T11:09:21.886Z,55.30
2019-01-31T11:12:03.267Z,53.60
2019-01-31T11:14:33.452Z,36.37
2019-01-31T11:17:12.300Z,34.37
2019-01-31T11:19:42.982Z,38.07
2019-01-31T11:22:12.080Z,31.73
2019-01-31T11:24:56.233Z,15.00
2019-01-31T11:27:43.554Z,13.63
2019-01-31T11:30:21.486Z,25.93
2019-01-31T11:32:53.516Z,34.50
2019-01-31T11:35:41.246Z,41.07
2019-01-31T11:38:10.742Z,41.47
2019-01-31T11:40:42.750Z,40.23
2019-01-31T11:43:12.173Z,55.77
2019-01-31T11:45:50.418Z,78.57
2019-01-31T11:48:25.710Z,70.57
2019-01-31T11:51:03.645Z,64.10
2019-01-31T11:53:42.978Z,64.30
2019-01-31T11:59:23.146Z,82.20
2019-01-31T12:01:50.584Z,86.60
2019-01-31T12:04:18.024Z,102.30
2019-01-31T12:06:45.857Z,154.57
2019-01-31T12:09:13.435Z,197.07
2019-01-31T12:11:40.914Z,196.73
2019-01-31T12:14:10.522Z,201.43
2019-01-31T12:16:38.205Z,189.57
2019-01-31T12:19:07.515Z,205.43
2019-01-31T12:21:34.695Z,207.57
2019-01-31T12:24:02.147Z,201.40
2019-01-31T12:26:29.631Z,201.50
2019-01-31T12:28:57.049Z,208.83
2019-01-31T12:31:24.592Z,179.03
2019-01-31T12:33:52.067Z,180.00
2019-01-31T12:36:19.528Z,164.73
2019-01-31T12:38:47.488Z,164.23
2019-01-31T12:41:14.916Z,160.63
2019-01-31T12:43:42.304Z,129.33
2019-01-31T12:46:11.310Z,117.30
2019-01-31T12:48:38.737Z,89.93
2019-01-31T12:51:06.171Z,73.47
2019-01-31T12:53:33.671Z,54.63
2019-01-31T12:56:02.773Z,45.50
2019-01-31T12:58:33.647Z,43.30
2019-01-31T13:00:59.384Z,45.77
2019-01-31T13:03:26.890Z,44.27
2019-01-31T13:05:54.297Z,43.80
2019-01-31T13:08:21.930Z,42.77
2019-01-31T13:10:49.317Z,47.27
2019-01-31T13:13:16.879Z,54.57
2019-01-31T13:15:44.428Z,52.70
2019-01-31T13:18:11.961Z,43.27
2019-01-31T13:20:40.935Z,39.27
2019-01-31T13:23:08.515Z,40.23
2019-01-31T13:25:36.047Z,34.03
2019-01-31T13:28:03.537Z,28.37
2019-01-31T13:30:40.681Z,29.97
2019-01-31T13:33:12.371Z,37.10
2019-01-31T13:35:41.020Z,29.93
2019-01-31T13:38:11.425Z,31.53
2019-01-31T13:40:41.224Z,31.40
2019-01-31T13:43:11.405Z,36.90
2019-01-31T13:45:45.382Z,33.57
2019-01-31T13:48:12.909Z,32.90
2019-01-31T13:50:40.570Z,35.10
2019-01-31T13:53:08.378Z,34.87
2019-01-31T13:55:35.763Z,32.83
2019-01-31T13:58:03.253Z,38.27
2019-01-31T14:00:30.765Z,40.50
2019-01-31T14:02:58.243Z,34.30
2019-01-31T14:05:25.838Z,38.47
2019-01-31T14:07:53.310Z,38.33
2019-01-31T14:10:21.654Z,40.07
2019-01-31T14:12:49.106Z,43.40
2019-01-31T14:15:17.902Z,42.73
2019-01-31T14:17:45.330Z,42.60
2019-01-31T14:20:14.385Z,41.03
2019-01-31T14:22:42.983Z,40.27
2019-01-31T14:25:11.456Z,40.50
2019-01-31T14:27:42.097Z,42.93
2019-01-31T14:30:14.126Z,54.23
2019-01-31T14:32:42.133Z,49.17
2019-01-31T14:35:10.506Z,46.47
2019-01-31T14:37:37.950Z,41.73
2019-01-31T14:40:06.847Z,44.40
2019-01-31T14:42:34.455Z,45.90
2019-01-31T14:45:01.873Z,40.53
2019-01-31T14:47:30.897Z,43.93
2019-01-31T14:49:58.375Z,44.30
2019-01-31T14:52:25.871Z,52.40
2019-01-31T14:54:53.298Z,55.47
2019-01-31T14:57:20.910Z,54.93
2019-01-31T14:59:48.309Z,54.07
2019-01-31T15:02:15.663Z,55.60
2019-01-31T15:04:43.138Z,57.93
2019-01-31T15:07:12.115Z,57.77
2019-01-31T15:09:39.655Z,57.33
2019-01-31T15:12:08.340Z,58.40
2019-01-31T15:14:37.960Z,59.50
2019-01-31T15:17:04.911Z,61.47
2019-01-31T15:19:32.386Z,64.40
2019-01-31T15:21:59.767Z,68.07
2019-01-31T15:24:27.315Z,67.13
2019-01-31T15:26:54.847Z,69.30
2019-01-31T15:29:22.290Z,76.93
2019-01-31T15:31:50.468Z,79.07
2019-01-31T15:34:18.007Z,88.57
2019-01-31T15:36:45.523Z,114.23
2019-01-31T15:39:13.085Z,112.93
2019-01-31T15:41:40.586Z,136.00
2019-01-31T15:44:08.085Z,147.33
2019-01-31T15:46:35.594Z,142.77
2019-01-31T15:49:03.233Z,171.30
2019-01-31T15:51:35.580Z,283.33
2019-01-31T15:54:03.386Z,297.93
2019-01-31T15:56:30.872Z,289.33
2019-01-31T15:58:58.381Z,255.43
2019-01-31T16:01:25.810Z,251.97
2019-01-31T16:03:53.310Z,230.83
2019-01-31T16:06:27.346Z,225.10
2019-01-31T16:08:54.914Z,229.23
2019-01-31T16:11:23.555Z,216.43
2019-01-31T16:13:50.960Z,176.63
2019-01-31T16:16:21.691Z,180.80
2019-01-31T16:18:49.256Z,178.97
2019-01-31T16:21:16.716Z,211.27
2019-01-31T16:23:44.300Z,204.87
2019-01-31T16:26:11.835Z,224.60
2019-01-31T16:28:39.522Z,252.93
2019-01-31T16:31:11.398Z,259.17
2019-01-31T16:33:41.490Z,254.27
2019-01-31T16:36:09.088Z,221.27
2019-01-31T16:38:40.896Z,204.80
2019-01-31T16:41:09.735Z,209.73
2019-01-31T16:43:39.295Z,252.97
2019-01-31T16:46:07.979Z,228.87
2019-01-31T16:48:35.638Z,232.43
2019-01-31T16:51:03.292Z,239.67
2019-01-31T16:53:33.264Z,237.70
2019-01-31T16:56:03.029Z,286.87
2019-01-31T17:03:05.450Z,355.80
2019-01-31T17:04:13.689Z,386.50
2019-01-31T17:06:44.373Z,613.67
2019-01-31T17:12:22.497Z,736.57
2019-01-31T17:14:55.771Z,628.17
2019-01-31T17:17:23.363Z,745.00
2019-01-31T17:19:51.198Z,673.10
2019-01-31T17:22:18.672Z,639.23
2019-01-31T17:24:46.119Z,629.93
2019-01-31T17:27:13.748Z,595.20
2019-01-31T17:29:41.311Z,570.97
2019-01-31T17:32:08.885Z,488.20
2019-01-31T17:34:36.580Z,586.47
2019-01-31T17:37:04.079Z,561.10
2019-01-31T17:39:31.539Z,582.23
2019-01-31T17:41:59.047Z,558.07
2019-01-31T17:44:29.244Z,549.23
2019-01-31T17:46:58.702Z,461.43
2019-01-31T17:49:26.150Z,469.83
2019-01-31T17:51:56.219Z,428.57
2019-01-31T17:54:23.805Z,444.40
2019-01-31T17:56:51.320Z,380.70
2019-01-31T17:59:18.742Z,412.43
2019-01-31T18:01:46.333Z,378.53
2019-01-31T18:04:13.867Z,418.03
2019-01-31T18:06:43.243Z,455.37
2019-01-31T18:09:10.448Z,455.93
2019-01-31T18:11:37.955Z,460.10
2019-01-31T18:14:05.816Z,461.80
2019-01-31T18:16:34.909Z,451.73
2019-01-31T18:19:02.397Z,447.17
2019-01-31T18:21:31.104Z,431.90
2019-01-31T18:23:58.711Z,426.43
2019-01-31T18:26:26.274Z,418.97
2019-01-31T18:28:53.930Z,389.47
2019-01-31T18:31:23.516Z,383.70
2019-01-31T18:33:50.741Z,399.80
2019-01-31T18:36:18.313Z,417.93
2019-01-31T18:38:46.263Z,437.73
2019-01-31T18:41:22.597Z,439.70
2019-01-31T18:43:50.785Z,447.27
2019-01-31T18:46:21.155Z,461.07
2019-01-31T18:48:48.522Z,397.03
2019-01-31T18:51:16.307Z,384.93
2019-01-31T18:53:43.889Z,369.33
2019-01-31T18:56:13.092Z,404.90
2019-01-31T18:58:44.313Z,346.53
2019-01-31T19:01:13.124Z,326.70
2019-01-31T19:03:40.676Z,320.00
2019-01-31T19:06:08.283Z,313.93
2019-01-31T19:08:35.795Z,317.07
2019-01-31T19:11:03.209Z,339.63
2019-01-31T19:13:30.759Z,343.97
2019-01-31T19:16:05.200Z,351.53
2019-01-31T19:18:27.519Z,374.50
2019-01-31T19:20:55.084Z,383.37
2019-01-31T19:23:22.616Z,383.17
2019-01-31T19:25:50.006Z,374.47
2019-01-31T19:28:19.138Z,386.47
2019-01-31T19:30:48.303Z,413.60
2019-01-31T19:33:17.378Z,384.67
2019-01-31T19:35:46.560Z,417.53
2019-01-31T19:38:14.916Z,503.50
2019-01-31T19:40:43.180Z,491.70
2019-01-31T19:43:12.425Z,453.43
2019-01-31T19:45:41.544Z,445.27
2019-01-31T19:48:09.103Z,406.80
2019-01-31T19:50:36.620Z,393.10
2019-01-31T19:53:04.312Z,506.03
2019-01-31T19:55:31.781Z,513.17
2019-01-31T19:57:59.440Z,515.20
2019-01-31T20:00:27.397Z,536.70
2019-01-31T20:02:54.907Z,532.60
2019-01-31T20:05:22.737Z,545.67
2019-01-31T20:07:52.150Z,511.43
2019-01-31T20:10:26.197Z,516.40
2019-01-31T20:12:55.285Z,534.70
2019-01-31T20:15:22.784Z,543.80
2019-01-31T20:17:50.470Z,556.87
2019-01-31T20:20:20.035Z,556.87
2019-01-31T20:22:57.083Z,606.70
2019-01-31T20:25:25.517Z,551.73
2019-01-31T20:28:00.677Z,565.33
2019-01-31T20:30:24.895Z,556.10
2019-01-31T20:32:56.800Z,552.10
2019-01-31T20:35:24.399Z,480.20
2019-01-31T20:37:52.185Z,512.03
2019-01-31T20:40:22.718Z,665.03
2019-01-31T20:42:51.323Z,621.50
2019-01-31T20:45:18.788Z,593.37
2019-01-31T20:47:46.497Z,515.00
2019-01-31T20:50:19.929Z,461.47
2019-01-31T20:52:47.453Z,463.87
2019-01-31T20:55:15.438Z,382.77
2019-01-31T20:57:43.146Z,382.80
2019-01-31T21:00:15.404Z,327.17
2019-01-31T21:02:43.030Z,292.80
2019-01-31T21:05:10.747Z,308.53
2019-01-31T21:07:38.344Z,320.03
2019-01-31T21:10:07.561Z,319.80
2019-01-31T21:12:35.614Z,290.10
2019-01-31T21:15:05.012Z,289.20
2019-01-31T21:17:35.275Z,262.73
2019-01-31T21:20:02.947Z,299.13
2019-01-31T21:22:30.454Z,280.93
2019-01-31T21:24:59.645Z,273.10
2019-01-31T21:27:27.225Z,260.37
2019-01-31T21:29:56.264Z,276.40
2019-01-31T21:32:27.969Z,261.30
2019-01-31T21:34:58.997Z,262.67
2019-01-31T21:37:26.884Z,268.50
2019-01-31T21:39:55.702Z,266.00
2019-01-31T21:42:23.210Z,267.67
2019-01-31T21:44:50.902Z,258.73
2019-01-31T21:47:18.545Z,247.70
2019-01-31T21:49:47.586Z,248.30
2019-01-31T21:52:15.206Z,252.93
2019-01-31T21:54:44.277Z,259.27
2019-01-31T21:57:11.900Z,277.33
2019-01-31T21:59:39.429Z,282.80
2019-01-31T22:02:09.630Z,292.47
2019-01-31T22:04:38.163Z,339.17
2019-01-31T22:07:06.344Z,395.77
2019-01-31T22:09:33.963Z,400.17
2019-01-31T22:12:01.474Z,396.37
2019-01-31T22:14:29.014Z,486.40
2019-01-31T22:16:57.034Z,526.37
2019-01-31T22:19:24.492Z,461.03
2019-01-31T22:21:52.046Z,514.53
2019-01-31T22:24:19.633Z,402.27
2019-01-31T22:26:47.209Z,445.47
2019-01-31T22:29:16.323Z,477.77
2019-01-31T22:31:44.969Z,424.27
2019-01-31T22:34:14.193Z,415.70
2019-01-31T22:36:41.665Z,387.53
2019-01-31T22:39:10.550Z,389.47
2019-01-31T22:41:38.070Z,410.70
2019-01-31T22:44:08.634Z,443.77
2019-01-31T22:46:37.082Z,453.53
2019-01-31T22:49:04.533Z,465.77
2019-01-31T22:51:32.096Z,435.67
2019-01-31T22:54:01.324Z,394.57
2019-01-31T22:56:29.496Z,353.67
2019-01-31T22:58:58.600Z,342.33
2019-01-31T23:01:28.395Z,418.97
2019-01-31T23:03:58.911Z,439.03
2019-01-31T23:06:26.638Z,451.47
2019-01-31T23:08:54.321Z,447.07
2019-01-31T23:11:21.846Z,432.80
2019-01-31T23:13:49.452Z,355.87
2019-01-31T23:16:17.076Z,318.63
2019-01-31T23:18:47.348Z,389.33
2019-01-31T23:21:14.980Z,399.33
2019-01-31T23:23:42.647Z,339.40
2019-01-31T23:26:16.126Z,278.10
2019-01-31T23:28:43.564Z,312.33
2019-01-31T23:31:11.133Z,284.23
2019-01-31T23:33:41.068Z,284.30
2019-01-31T23:36:08.675Z,269.70
2019-01-31T23:38:36.256Z,268.43
2019-01-31T23:41:03.784Z,273.20
2019-01-31T23:43:31.251Z,281.27
2019-01-31T23:45:59.131Z,255.07
2019-01-31T23:48:26.660Z,269.07
2019-01-31T23:50:54.047Z,285.03
2019-01-31T23:53:21.634Z,274.37
2019-01-31T23:55:49.204Z,267.43
2019-01-31T23:58:16.737Z,308.30
